Time;durP1;ratioP1;P1;durP2;ratioP2;P2;SDS_P1;SDS_P2;PMS_P1;PMS_P2;Temp;Humidity;BMP_temperature;BMP_pressure;BME280_temperature;BME280_humidity;BME280_pressure;Samples;Min_cycle;Max_cycle;Signal;HPM_P1;HPM_P2
2023/10/11 00:02:07;;;;;;;22.90;14.38;;;;;;;10.87;85.92;98422.63;10409325;28;20378;-49
2023/10/11 00:07:06;;;;;;;21.35;13.77;;;;;;;10.83;86.40;98429.47;10409614;28;20056;-48
2023/10/11 00:12:05;;;;;;;20.90;14.18;;;;;;;10.81;86.68;98427.72;10407498;28;20068;-50
2023/10/11 00:17:04;;;;;;;;;;;;;;;10.77;86.35;98428.53;10409556;28;20066;-47
2023/10/11 00:22:05;;;;;;;22.52;14.38;;;;;;;10.75;86.17;98432.84;10406968;28;19966;-48
2023/10/11 00:27:04;;;;;;;20.60;13.80;;;;;;;10.71;86.15;98424.16;10406371;28;20152;-48
2023/10/11 00:32:04;;;;;;;21.83;14.73;;;;;;;10.61;86.78;98420.63;10405071;28;20036;-51
2023/10/11 00:37:04;;;;;;;24.35;14.40;;;;;;;10.57;87.15;98424.03;10405379;28;20064;-51
2023/10/11 00:42:03;;;;;;;22.50;14.52;;;;;;;10.54;86.38;98412.75;10405706;28;20116;-50
2023/10/11 00:47:07;;;;;;;21.23;14.15;;;;;;;10.38;85.68;98406.56;10405576;28;20032;-49
2023/10/11 00:52:06;;;;;;;20.80;13.57;;;;;;;10.37;86.66;98405.66;10393129;28;20071;-50
2023/10/11 00:57:06;;;;;;;21.98;13.38;;;;;;;10.04;86.72;98374.19;10363520;28;20060;-49
2023/10/11 01:02:06;;;;;;;21.20;13.13;;;;;;;10.24;86.27;98414.19;10369347;28;20491;-50
2023/10/11 01:07:08;;;;;;;21.15;13.93;;;;;;;10.16;87.25;98415.81;10371603;28;20132;-51
2023/10/11 01:12:07;;;;;;;20.25;14.13;;;;;;;9.98;87.30;98419.94;10371657;28;20513;-49
2023/10/11 01:17:07;;;;;;;24.73;14.75;;;;;;;9.86;87.95;98400.75;10370781;28;20463;-51
2023/10/11 01:22:06;;;;;;;23.17;14.35;;;;;;;9.86;88.49;98421.50;10410471;28;20122;-49
2023/10/11 01:27:05;;;;;;;21.17;14.77;;;;;;;9.84;88.72;98429.28;10411763;28;20044;-48
2023/10/11 01:32:04;;;;;;;24.50;14.35;;;;;;;9.82;88.66;98425.78;10412213;28;20507;-47
2023/10/11 01:37:06;;;;;;;23.77;13.88;;;;;;;9.76;88.28;98436.94;10411457;28;20570;-49
2023/10/11 01:42:05;;;;;;;18.65;12.52;;;;;;;9.71;87.89;98435.16;10411244;28;20068;-48
2023/10/11 01:47:05;;;;;;;21.05;12.40;;;;;;;9.71;87.17;98432.56;10411147;28;20043;-51
2023/10/11 01:52:06;;;;;;;21.75;13.68;;;;;;;9.62;87.05;98445.38;10400672;28;20056;-49
2023/10/11 01:57:05;;;;;;;19.50;13.32;;;;;;;9.27;86.71;98420.66;10366821;28;20531;-48
2023/10/11 02:02:09;;;;;;;19.83;13.38;;;;;;;9.32;86.57;98442.38;10369591;28;20448;-50
2023/10/11 02:07:09;;;;;;;37.55;16.38;;;;;;;9.30;87.19;98450.94;10369250;28;20071;-49
2023/10/11 02:12:10;;;;;;;25.52;15.85;;;;;;;9.22;87.77;98463.75;10369284;28;20067;-49
2023/10/11 02:17:09;;;;;;;25.98;15.48;;;;;;;9.20;88.17;98465.44;10368838;28;20056;-51
2023/10/11 02:22:11;;;;;;;27.75;17.17;;;;;;;9.26;88.55;98475.91;10368452;28;20041;-51
2023/10/11 02:27:17;;;;;;;39.10;17.33;;;;;;;9.27;89.25;98480.25;10368346;28;20065;-48
2023/10/11 02:32:16;;;;;;;36.38;18.58;;;;;;;9.29;89.79;98483.75;10365806;28;20073;-48
2023/10/11 02:37:16;;;;;;;31.27;18.83;;;;;;;9.38;89.46;98490.81;10368098;28;20102;-51
2023/10/11 02:42:19;;;;;;;29.17;19.15;;;;;;;9.39;89.87;98491.69;10367823;28;20067;-49
2023/10/11 02:47:22;;;;;;;40.65;20.77;;;;;;;9.51;89.70;98503.13;10367483;28;20060;-48
2023/10/11 02:52:35;;;;;;;28.77;19.73;;;;;;;9.28;89.71;98458.72;10380239;28;20503;-48
2023/10/11 02:57:34;;;;;;;31.63;19.42;;;;;;;9.59;89.72;98504.94;10408992;28;20080;-48
2023/10/11 03:02:38;;;;;;;41.05;25.25;;;;;;;9.77;90.11;98508.69;10366594;28;20118;-49
2023/10/11 03:07:39;;;;;;;33.20;21.85;;;;;;;9.93;89.79;98514.06;10366580;28;20532;-50
2023/10/11 03:12:39;;;;;;;30.10;21.15;;;;;;;10.04;89.24;98509.03;10366869;28;20124;-50
2023/10/11 03:17:41;;;;;;;26.13;17.58;;;;;;;10.17;89.66;98517.00;10364873;28;20191;-50
2023/10/11 03:22:40;;;;;;;24.33;17.67;;;;;;;10.27;88.88;98522.31;10363778;28;20068;-47
2023/10/11 03:27:48;;;;;;;28.90;19.15;;;;;;;10.22;88.46;98495.44;10366701;28;20108;-48
2023/10/11 03:32:47;;;;;;;26.55;19.13;;;;;;;10.33;88.27;98501.59;10365945;28;20132;-48
2023/10/11 03:37:58;;;;;;;32.03;21.77;;;;;;;10.59;88.41;98530.47;10365430;28;20122;-48
2023/10/11 03:43:01;;;;;;;39.22;26.33;;;;;;;10.72;88.05;98541.84;10365730;28;20128;-51
2023/10/11 03:48:01;;;;;;;33.63;25.10;;;;;;;10.02;87.18;98430.34;10365292;28;20072;-48
2023/10/11 03:53:13;;;;;;;35.40;26.15;;;;;;;10.80;87.79;98555.81;10384082;28;20084;-48
2023/10/11 03:58:22;;;;;;;32.38;23.85;;;;;;;10.84;87.61;98552.34;10405751;28;20122;-50
2023/10/11 04:03:21;;;;;;;28.85;22.23;;;;;;;10.87;88.03;98555.03;10404966;28;20076;-48
2023/10/11 04:08:24;;;;;;;26.90;20.92;;;;;;;11.00;87.04;98553.44;10405522;28;20119;-51
2023/10/11 04:13:26;;;;;;;32.70;23.23;;;;;;;11.04;87.41;98543.09;10405796;28;20545;-48
2023/10/11 04:23:35;;;;;;;27.50;20.65;;;;;;;11.16;86.25;98546.66;10406486;28;20059;-51
2023/10/11 04:28:41;;;;;;;27.10;21.25;;;;;;;11.19;86.29;98552.75;10409371;28;20071;-49
2023/10/11 04:33:45;;;;;;;28.55;20.48;;;;;;;11.10;86.45;98551.78;10404714;28;20068;-50
2023/10/11 04:38:47;;;;;;;30.00;21.92;;;;;;;10.84;85.38;98568.81;10375975;28;20063;-48
2023/10/11 04:44:12;;;;;;;30.17;22.73;;;;;;;10.81;85.28;98573.09;10376024;28;20068;-51
2023/10/11 04:49:23;;;;;;;26.63;20.40;;;;;;;10.73;84.94;98578.22;10375768;28;20060;-50
2023/10/11 04:54:35;;;;;;;26.95;20.88;;;;;;;10.60;84.99;98572.00;10388719;28;20484;-50
2023/10/11 05:04:33;;;;;;;27.50;21.23;;;;;;;10.63;85.08;98578.94;10375804;28;20029;-48
2023/10/11 05:09:39;;;;;;;24.50;19.90;;;;;;;10.72;84.72;98584.25;10375847;28;20063;-50
2023/10/11 05:14:53;;;;;;;23.75;19.52;;;;;;;10.67;84.76;98587.66;10392161;28;20056;-50
2023/10/11 05:50:59;;;;;;;37.55;19.08;;;;;;;10.00;85.62;98609.22;10370717;28;21036;-50
2023/10/11 05:55:58;;;;;;;40.08;19.35;;;;;;;10.13;85.56;98624.13;10370004;28;20116;-48
2023/10/11 06:00:57;;;;;;;43.13;20.58;;;;;;;10.25;85.65;98628.63;10369147;28;20041;-50
2023/10/11 06:05:56;;;;;;;32.80;19.13;;;;;;;10.35;86.70;98632.22;10369188;28;20111;-50
2023/10/11 06:10:55;;;;;;;21.33;17.27;;;;;;;10.56;85.99;98627.31;10369815;28;20040;-49
2023/10/11 06:16:00;;;;;;;21.80;17.30;;;;;;;10.55;85.45;98602.22;10404481;28;20056;-48
2023/10/11 06:21:05;;;;;;;22.95;17.67;;;;;;;10.91;85.29;98631.22;10404705;28;20080;-50
2023/10/11 06:26:28;;;;;;;23.40;18.73;;;;;;;10.87;85.61;98611.25;10368432;28;20068;-49
2023/10/11 06:31:24;;;;;;;20.63;18.13;;;;;;;11.12;85.87;98646.19;10372043;28;20484;-51
2023/10/11 06:36:23;;;;;;;24.38;18.25;;;;;;;11.17;85.92;98647.09;10388087;28;20075;-48
2023/10/11 06:41:37;;;;;;;22.15;16.70;;;;;;;11.21;85.91;98647.16;10411854;28;20039;-50
2023/10/11 06:46:37;;;;;;;20.05;14.93;;;;;;;11.22;86.97;98632.44;10411333;28;20067;-48
2023/10/11 06:51:36;;;;;;;21.60;16.05;;;;;;;11.47;86.99;98625.75;10412231;28;20095;-48
2023/10/11 06:56:38;;;;;;;24.23;16.00;;;;;;;11.55;86.63;98623.22;10411626;28;20078;-48
2023/10/11 07:01:41;;;;;;;20.30;15.73;;;;;;;11.59;86.89;98596.41;10393044;28;20092;-51
2023/10/11 07:06:42;;;;;;;20.23;15.75;;;;;;;11.73;87.71;98631.19;10393697;28;20060;-50
2023/10/11 07:11:41;;;;;;;19.10;14.35;;;;;;;11.92;87.89;98626.13;10412095;28;20066;-48
2023/10/11 07:16:44;;;;;;;19.63;15.15;;;;;;;12.20;86.85;98617.66;10410216;28;20580;-50
2023/10/11 07:31:49;;;;;;;32.22;24.25;;;;;;;12.89;87.04;98630.22;10374457;28;20536;-49
2023/10/11 07:36:49;;;;;;;19.00;15.73;;;;;;;13.20;85.91;98638.13;10374508;28;20518;-48
2023/10/11 07:41:49;;;;;;;16.75;13.10;;;;;;;13.53;84.80;98640.78;10373963;28;20068;-50
2023/10/11 07:46:54;;;;;;;14.45;11.68;;;;;;;13.89;83.24;98648.66;10373995;28;20072;-48
2023/10/11 07:51:58;;;;;;;14.27;10.40;;;;;;;14.22;81.61;98645.19;10373917;28;20477;-48
2023/10/11 07:56:57;;;;;;;13.77;10.10;;;;;;;14.45;79.47;98645.13;10374216;28;20083;-49
2023/10/11 08:01:59;;;;;;;14.10;8.88;;;;;;;14.46;77.54;98602.47;10374334;28;20064;-51
2023/10/11 08:06:59;;;;;;;11.25;7.95;;;;;;;14.93;75.16;98652.84;10386997;28;20075;-49
2023/10/11 08:11:59;;;;;;;10.07;7.35;;;;;;;15.14;71.25;98655.38;10393174;28;20064;-48
2023/10/11 08:17:10;;;;;;;11.98;7.45;;;;;;;15.55;71.64;98656.00;10409100;28;20581;-49
2023/10/11 08:22:14;;;;;;;12.25;7.80;;;;;;;15.68;69.65;98639.34;10408872;28;20059;-47
2023/10/11 08:27:22;;;;;;;12.93;7.35;;;;;;;16.05;67.36;98650.41;10414767;28;20064;-47
2023/10/11 08:32:25;;;;;;;16.03;7.90;;;;;;;16.13;65.96;98639.00;10374041;28;20076;-50
2023/10/11 08:37:25;;;;;;;13.13;7.00;;;;;;;16.36;64.09;98654.50;10372104;28;20483;-51
2023/10/11 08:42:30;;;;;;;11.02;6.35;;;;;;;16.61;62.79;98644.66;10401232;28;20482;-49
2023/10/11 08:47:29;;;;;;;10.80;6.55;;;;;;;16.85;61.39;98657.50;10414475;28;20060;-49
2023/10/11 08:52:28;;;;;;;10.38;5.50;;;;;;;16.93;59.20;98660.00;10412873;28;20064;-50
2023/10/11 08:57:31;;;;;;;11.20;6.18;;;;;;;17.12;60.45;98632.69;10409696;28;20067;-48
2023/10/11 09:02:33;;;;;;;7.45;5.45;;;;;;;17.42;57.73;98659.38;10410559;28;20071;-50
2023/10/11 09:07:38;;;;;;;9.05;5.80;;;;;;;17.36;56.25;98643.72;10384296;28;20068;-50
2023/10/11 09:12:45;;;;;;;8.32;5.38;;;;;;;17.79;56.89;98644.88;10409210;28;20064;-49
2023/10/11 09:17:49;;;;;;;8.38;5.57;;;;;;;18.02;56.13;98642.75;10406708;28;20847;-50
2023/10/11 09:22:52;;;;;;;11.88;6.30;;;;;;;18.22;55.17;98636.25;10415595;28;20060;-51
2023/10/11 09:27:51;;;;;;;7.88;5.20;;;;;;;18.02;53.70;98634.00;10409779;28;20083;-49
2023/10/11 09:32:51;;;;;;;9.27;5.07;;;;;;;18.10;53.59;98630.31;10416154;28;20041;-49
2023/10/11 09:37:50;;;;;;;9.00;5.50;;;;;;;18.19;53.23;98619.66;10417197;28;20064;-49
2023/10/11 09:42:50;;;;;;;10.77;5.28;;;;;;;18.42;52.75;98613.13;10409828;28;20064;-51
2023/10/11 09:47:54;;;;;;;10.02;5.20;;;;;;;18.33;51.53;98622.03;10417468;28;20432;-48
2023/10/11 09:52:53;;;;;;;7.95;4.80;;;;;;;18.52;51.61;98603.31;10418709;28;20052;-49
2023/10/11 09:58:02;;;;;;;7.05;5.18;;;;;;;18.53;51.15;98616.41;10417139;28;20530;-48
2023/10/11 10:03:04;;;;;;;12.25;5.35;;;;;;;18.89;50.56;98613.97;10415631;28;20076;-51
2023/10/11 10:08:14;;;;;;;7.88;5.05;;;;;;;18.81;49.73;98584.34;10417032;28;20071;-49
2023/10/11 10:13:13;;;;;;;7.68;5.07;;;;;;;19.08;49.42;98596.03;10414055;28;20472;-50
2023/10/11 10:18:19;;;;;;;7.93;4.72;;;;;;;19.53;50.00;98600.28;10418148;28;20415;-50
2023/10/11 10:23:19;;;;;;;8.73;4.90;;;;;;;19.99;49.40;98596.56;10402098;28;20068;-49
2023/10/11 10:28:37;;;;;;;7.53;4.07;;;;;;;20.05;48.72;98596.41;10420276;28;20059;-49
2023/10/11 10:33:37;;;;;;;6.00;4.43;;;;;;;19.89;49.23;98582.75;10410110;28;20075;-49
2023/10/11 10:38:58;;;;;;;8.10;4.90;;;;;;;19.69;49.95;98577.97;10410581;28;20063;-49
2023/10/11 10:44:10;;;;;;;6.10;4.30;;;;;;;19.45;50.29;98569.75;10408177;28;20469;-49
2023/10/11 10:49:11;;;;;;;8.45;4.65;;;;;;;18.90;50.68;98544.72;10419266;28;20064;-51
2023/10/11 10:54:17;;;;;;;6.18;4.75;;;;;;;19.00;50.88;98569.91;10415811;28;20538;-51
2023/10/11 10:59:20;;;;;;;7.15;4.43;;;;;;;18.54;50.60;98451.69;10412657;28;20490;-47
2023/10/11 11:04:27;;;;;;;8.75;4.63;;;;;;;18.90;50.77;98557.88;10414064;28;20068;-51
2023/10/11 11:09:26;;;;;;;7.78;4.78;;;;;;;19.28;50.26;98550.88;10412184;28;20760;-49
2023/10/11 11:14:25;;;;;;;6.57;4.35;;;;;;;19.35;49.57;98541.91;10412432;28;20610;-48
2023/10/11 11:19:27;;;;;;;7.55;4.70;;;;;;;19.20;49.48;98550.16;10414346;28;20482;-51
2023/10/11 11:24:41;;;;;;;10.57;4.28;;;;;;;19.49;48.77;98551.25;10413382;28;20114;-50
2023/10/11 11:29:40;;;;;;;7.95;5.18;;;;;;;19.57;49.14;98542.28;10410013;28;20060;-51
2023/10/11 11:35:01;;;;;;;8.18;4.75;;;;;;;19.69;48.75;98541.13;10409683;28;20507;-50
2023/10/11 11:40:19;;;;;;;6.03;4.32;;;;;;;19.82;48.08;98505.66;10409260;28;20788;-51
2023/10/11 11:45:20;;;;;;;7.70;4.50;;;;;;;20.03;47.00;98514.75;10406938;28;20071;-49
2023/10/11 11:50:21;;;;;;;7.97;4.50;;;;;;;20.29;47.05;98516.69;10408522;28;20052;-48
2023/10/11 11:55:23;;;;;;;6.55;4.40;;;;;;;20.41;46.32;98509.38;10409270;28;20063;-48
2023/10/11 12:05:27;;;;;;;7.50;4.50;;;;;;;20.49;45.60;98521.44;10406974;28;20067;-48
2023/10/11 12:10:26;;;;;;;6.30;4.50;;;;;;;20.60;45.25;98510.56;10403666;28;20068;-49
2023/10/11 12:15:28;;;;;;;6.50;4.53;;;;;;;20.64;44.82;98492.88;10412382;28;20063;-49
2023/10/11 12:20:33;;;;;;;8.70;4.22;;;;;;;20.52;44.79;98507.28;10409676;28;20452;-51
2023/10/11 12:25:37;;;;;;;7.55;5.47;;;;;;;20.79;44.94;98507.38;10405488;28;20824;-51
2023/10/11 12:30:36;;;;;;;6.90;4.35;;;;;;;20.87;43.99;98498.31;10408282;28;20068;-51
2023/10/11 12:35:40;;;;;;;6.65;4.45;;;;;;;20.81;43.89;98497.63;10407181;28;20060;-49
2023/10/11 12:40:44;;;;;;;8.40;4.82;;;;;;;20.59;44.43;98505.34;10404597;28;20067;-51
2023/10/11 12:45:43;;;;;;;6.85;4.05;;;;;;;20.58;44.27;98498.31;10400513;28;20797;-51
2023/10/11 12:50:42;;;;;;;5.80;3.90;;;;;;;20.71;43.77;98497.91;10390297;28;20087;-50
2023/10/11 12:55:43;;;;;;;6.15;4.20;;;;;;;20.83;43.69;98491.41;10374883;28;20538;-51
2023/10/11 13:00:49;;;;;;;6.55;3.92;;;;;;;20.83;43.14;98498.47;10397901;28;20068;-49
2023/10/11 13:05:47;;;;;;;5.07;3.50;;;;;;;20.65;43.21;98482.25;10406382;28;20069;-48
2023/10/11 13:10:50;;;;;;;7.13;4.85;;;;;;;20.64;42.86;98491.09;10409304;28;20021;-49
2023/10/11 13:16:00;;;;;;;7.10;3.97;;;;;;;20.50;42.70;98491.50;10416994;28;20052;-49
2023/10/11 13:20:59;;;;;;;7.30;4.10;;;;;;;20.50;42.39;98488.00;10396993;28;20817;-49
2023/10/11 13:26:08;;;;;;;7.95;3.60;;;;;;;20.22;42.27;98478.22;10408426;28;20503;-48
2023/10/11 13:31:09;;;;;;;3.90;2.95;;;;;;;20.18;42.37;98479.22;10415144;28;20473;-49
2023/10/11 13:36:08;;;;;;;5.00;3.60;;;;;;;20.28;42.10;98475.44;10419845;28;20064;-51
2023/10/11 13:41:12;;;;;;;5.40;3.83;;;;;;;20.50;42.06;98472.19;10419592;28;20033;-52
2023/10/11 13:46:13;;;;;;;6.00;3.70;;;;;;;20.50;41.59;98472.19;10418764;28;20048;-50
2023/10/11 13:51:18;;;;;;;6.95;3.25;;;;;;;19.69;41.76;98340.13;10416333;28;20099;-51
2023/10/11 13:56:21;;;;;;;6.40;3.90;;;;;;;20.33;41.71;98459.47;10408529;28;20060;-49
2023/10/11 14:06:53;;;;;;;7.18;3.80;;;;;;;20.61;41.58;98469.22;10415483;28;20064;-52
2023/10/11 14:11:58;;;;;;;5.55;3.50;;;;;;;20.46;41.95;98462.63;10416576;28;20060;-52
2023/10/11 14:16:57;;;;;;;5.50;4.25;;;;;;;20.38;42.12;98462.84;10417370;28;20025;-50
2023/10/11 14:21:56;;;;;;;6.82;4.03;;;;;;;20.21;42.36;98444.00;10417590;28;20032;-50
2023/10/11 14:26:55;;;;;;;7.18;4.15;;;;;;;20.35;42.51;98457.63;10417148;28;20534;-51
2023/10/11 14:31:55;;;;;;;10.48;4.30;;;;;;;20.12;42.25;98449.53;10417244;28;20501;-49
2023/10/11 14:36:55;;;;;;;9.20;4.07;;;;;;;19.97;42.43;98450.84;10416341;28;20064;-49
2023/10/11 14:41:56;;;;;;;7.60;4.47;;;;;;;19.59;42.94;98427.28;10416756;28;20087;-49
2023/10/11 14:46:55;;;;;;;7.75;3.70;;;;;;;19.16;43.06;98402.06;10417322;28;20083;-47
2023/10/11 14:51:55;;;;;;;9.05;4.18;;;;;;;19.65;42.92;98476.28;10417022;28;20021;-49
2023/10/11 14:56:54;;;;;;;8.80;4.43;;;;;;;19.53;43.15;98477.41;10416635;28;20078;-52
2023/10/11 15:01:53;;;;;;;6.93;4.03;;;;;;;19.26;43.37;98486.03;10381837;28;20132;-51
2023/10/11 15:06:52;;;;;;;9.55;4.70;;;;;;;19.19;43.22;98482.66;10398699;28;20124;-49
2023/10/11 15:11:51;;;;;;;7.88;4.15;;;;;;;19.04;43.38;98483.88;10411003;28;20060;-50
2023/10/11 15:16:51;;;;;;;7.60;3.95;;;;;;;18.99;43.55;98489.28;10409598;28;20131;-50
2023/10/11 15:21:50;;;;;;;9.25;4.50;;;;;;;18.89;43.61;98500.03;10409625;28;20075;-48
2023/10/11 15:26:51;;;;;;;11.00;4.20;;;;;;;18.82;43.52;98500.16;10411838;28;20119;-48
2023/10/11 15:31:50;;;;;;;8.70;4.10;;;;;;;18.67;44.08;98510.13;10383368;28;20600;-48
2023/10/11 15:36:49;;;;;;;8.45;4.47;;;;;;;18.53;43.88;98503.41;10380454;28;20514;-51
2023/10/11 15:41:48;;;;;;;9.48;5.05;;;;;;;18.42;44.63;98500.13;10381197;28;20084;-48
2023/10/11 15:46:47;;;;;;;9.43;4.53;;;;;;;18.25;44.73;98518.88;10369960;28;20047;-51
2023/10/11 15:51:50;;;;;;;10.15;4.53;;;;;;;18.05;44.98;98518.38;10369308;28;20052;-50
2023/10/11 15:56:49;;;;;;;97.03;75.20;;;;;;;17.96;46.51;98524.66;10374458;28;20523;-51
2023/10/11 16:01:51;;;;;;;60.33;48.38;;;;;;;17.87;47.48;98525.72;10403560;28;20702;-51
2023/10/11 16:06:50;;;;;;;12.80;5.72;;;;;;;17.62;47.41;98530.50;10410789;28;20674;-51
2023/10/11 16:11:49;;;;;;;15.23;5.85;;;;;;;16.93;47.75;98453.78;10412332;28;20715;-51
2023/10/11 16:16:47;;;;;;;;;;;;;;;17.26;48.08;98538.06;10411012;28;20081;-51
2023/10/11 16:21:46;;;;;;;15.70;9.87;;;;;;;17.08;48.22;98538.34;10399183;28;20018;-51
2023/10/11 16:26:45;;;;;;;16.10;9.38;;;;;;;16.82;49.33;98539.56;10375595;28;20016;-50
2023/10/11 16:31:44;;;;;;;19.10;9.50;;;;;;;16.62;49.65;98552.03;10378295;28;20076;-51
2023/10/11 16:36:44;;;;;;;20.10;9.07;;;;;;;16.42;50.68;98550.53;10378480;28;20069;-49
2023/10/11 16:41:43;;;;;;;13.25;8.10;;;;;;;16.26;51.31;98559.44;10379474;28;20205;-50
2023/10/11 16:46:42;;;;;;;;;;;;;;;16.07;52.04;98562.25;10381227;28;20478;-49
2023/10/11 16:51:43;;;;;;;15.93;8.35;;;;;;;15.92;52.14;98565.00;10377318;28;19913;-48
2023/10/11 16:56:43;;;;;;;17.52;8.35;;;;;;;15.78;52.85;98580.81;10419628;28;20072;-48
2023/10/11 17:01:44;;;;;;;19.52;7.57;;;;;;;15.61;53.29;98585.31;10384960;28;20124;-48
2023/10/11 17:06:43;;;;;;;14.68;7.57;;;;;;;15.37;53.86;98568.09;10376903;28;20095;-52
2023/10/11 17:11:42;;;;;;;;;;;;;;;15.30;54.43;98587.31;10377990;28;20033;-51
2023/10/11 17:16:41;;;;;;;10.27;6.38;;;;;;;15.20;54.83;98584.75;10376589;28;19912;-51
2023/10/11 17:21:41;;;;;;;;;;;;;;;15.07;55.11;98596.16;10377419;28;20108;-49
2023/10/11 17:26:40;;;;;;;13.75;7.13;;;;;;;14.97;55.30;98602.31;10377877;28;20427;-48
2023/10/11 17:31:39;;;;;;;13.35;7.18;;;;;;;14.85;55.87;98607.56;10376436;28;20898;-49
2023/10/11 17:36:37;;;;;;;;;;;;;;;14.72;56.27;98607.63;10378043;28;20220;-52
2023/10/11 17:41:38;;;;;;;12.65;6.00;;;;;;;14.62;56.90;98605.91;10372787;28;19923;-48
2023/10/11 17:46:37;;;;;;;13.00;6.95;;;;;;;14.49;57.49;98619.88;10370453;28;20084;-49
2023/10/11 17:51:36;;;;;;;;;;;;;;;14.36;58.13;98619.91;10370586;28;20133;-48
2023/10/11 17:56:35;;;;;;;14.50;7.65;;;;;;;13.96;58.41;98573.00;10371383;28;19948;-51
2023/10/11 18:01:34;;;;;;;11.95;7.70;;;;;;;14.09;59.37;98618.22;10399978;28;20124;-48
2023/10/11 18:06:33;;;;;;;;;;;;;;;14.01;60.09;98616.47;10409217;28;20036;-50
2023/10/11 18:11:32;;;;;;;10.90;7.50;;;;;;;13.89;60.76;98623.47;10410976;28;20011;-50
2023/10/11 18:16:31;;;;;;;;;;;;;;;13.76;61.63;98621.72;10409809;28;20421;-49
2023/10/11 18:21:32;;;;;;;12.45;7.28;;;;;;;13.64;62.71;98617.38;10409503;28;19971;-52
2023/10/11 18:26:32;;;;;;;13.48;7.53;;;;;;;13.29;63.40;98583.41;10412505;28;20052;-51
2023/10/11 18:31:31;;;;;;;13.23;7.78;;;;;;;13.38;63.60;98609.50;10413064;28;20071;-48
2023/10/11 18:36:30;;;;;;;14.13;7.50;;;;;;;13.26;64.39;98614.69;10413328;28;20043;-50
2023/10/11 18:41:29;;;;;;;12.20;7.18;;;;;;;13.19;64.46;98619.00;10413822;28;20471;-51
2023/10/11 18:46:28;;;;;;;13.77;9.60;;;;;;;13.11;65.08;98616.38;10411301;28;20071;-50
2023/10/11 18:51:28;;;;;;;17.25;10.00;;;;;;;12.73;65.64;98575.44;10411525;28;20104;-51
2023/10/11 18:56:27;;;;;;;17.17;10.68;;;;;;;12.85;66.21;98624.09;10371437;28;20064;-49
2023/10/11 19:01:26;;;;;;;18.17;10.45;;;;;;;12.72;66.60;98618.00;10401130;28;20074;-50
2023/10/11 19:06:26;;;;;;;;;;;;;;;12.63;67.25;98619.69;10412853;28;20068;-52
2023/10/11 19:11:28;;;;;;;22.73;12.63;;;;;;;12.55;67.88;98618.75;10411610;28;19943;-49
2023/10/11 19:16:28;;;;;;;22.25;13.63;;;;;;;12.41;68.27;98616.94;10411326;28;20064;-51
2023/10/11 19:21:27;;;;;;;23.17;14.38;;;;;;;12.27;69.34;98627.31;10411322;28;20071;-49
2023/10/11 19:26:28;;;;;;;27.13;14.07;;;;;;;12.22;69.50;98623.75;10408860;28;20064;-48
2023/10/11 19:31:26;;;;;;;30.65;16.05;;;;;;;12.19;69.97;98623.75;10407056;28;20068;-51
2023/10/11 19:36:25;;;;;;;28.13;15.43;;;;;;;12.08;70.80;98628.84;10407710;28;20103;-49
2023/10/11 19:41:24;;;;;;;23.73;13.85;;;;;;;12.05;70.50;98618.44;10406996;28;20020;-49
2023/10/11 19:46:24;;;;;;;19.33;10.73;;;;;;;11.91;71.85;98627.00;10406449;28;20107;-51
2023/10/11 19:51:23;;;;;;;20.05;11.50;;;;;;;11.84;71.77;98631.28;10407292;28;20055;-49
2023/10/11 19:56:24;;;;;;;24.08;13.13;;;;;;;11.83;71.83;98630.44;10406941;28;20123;-49
2023/10/11 20:01:23;;;;;;;19.58;11.63;;;;;;;11.79;71.91;98626.06;10376406;28;20079;-49
2023/10/11 20:06:23;;;;;;;19.02;11.85;;;;;;;11.70;72.36;98619.91;10364422;28;20075;-48
2023/10/11 20:11:22;;;;;;;21.13;12.38;;;;;;;11.68;72.10;98622.50;10365318;28;20147;-50
2023/10/11 20:16:21;;;;;;;22.83;14.55;;;;;;;11.66;72.67;98619.88;10365420;28;20072;-48
2023/10/11 20:21:20;;;;;;;23.35;15.32;;;;;;;11.53;72.93;98611.97;10363951;28;20037;-50
2023/10/11 20:26:22;;;;;;;24.33;14.52;;;;;;;11.47;73.09;98620.56;10363590;28;20106;-52
2023/10/11 20:31:21;;;;;;;23.27;14.10;;;;;;;11.42;72.44;98617.91;10365171;28;20068;-50
2023/10/11 20:36:20;;;;;;;21.10;13.15;;;;;;;11.32;73.61;98617.84;10366092;28;20060;-51
2023/10/11 20:41:21;;;;;;;24.77;13.43;;;;;;;11.24;73.37;98628.13;10363721;28;20061;-48
2023/10/11 20:46:20;;;;;;;22.38;13.48;;;;;;;11.15;73.62;98615.94;10364969;28;20123;-49
2023/10/11 20:51:19;;;;;;;17.08;10.93;;;;;;;10.97;73.02;98601.03;10364713;28;20028;-48
2023/10/11 20:56:24;;;;;;;21.80;10.98;;;;;;;10.95;73.99;98620.91;10363522;28;20029;-50
2023/10/11 21:01:25;;;;;;;15.40;9.98;;;;;;;10.86;73.95;98614.69;10374412;28;20076;-50
2023/10/11 21:06:24;;;;;;;16.60;11.07;;;;;;;10.70;73.98;98611.91;10364211;28;20140;-50
2023/10/11 21:11:23;;;;;;;19.95;11.85;;;;;;;10.57;75.50;98605.72;10363241;28;20040;-47
2023/10/11 21:16:22;;;;;;;18.25;11.57;;;;;;;10.44;75.61;98606.41;10366551;28;20047;-48
2023/10/11 21:21:23;;;;;;;15.20;11.10;;;;;;;10.40;75.47;98602.91;10370770;28;20120;-50
2023/10/11 21:26:22;;;;;;;24.15;12.68;;;;;;;10.42;76.03;98600.31;10371549;28;20127;-49
2023/10/11 21:31:21;;;;;;;20.55;11.60;;;;;;;10.31;76.26;98605.38;10370197;28;20098;-50
2023/10/11 21:36:20;;;;;;;16.17;11.52;;;;;;;10.24;75.68;98587.09;10370766;28;20064;-48
2023/10/11 21:41:20;;;;;;;21.67;11.52;;;;;;;10.28;76.14;98607.91;10370011;28;20057;-50
2023/10/11 21:46:19;;;;;;;18.40;11.73;;;;;;;10.29;75.68;98616.59;10411900;28;20071;-48
2023/10/11 21:51:19;;;;;;;17.90;11.50;;;;;;;10.25;76.19;98607.00;10410879;28;20068;-50
2023/10/11 21:56:18;;;;;;;18.02;10.70;;;;;;;10.24;76.93;98607.84;10411304;28;20066;-49
2023/10/11 22:01:23;;;;;;;18.33;10.73;;;;;;;10.17;76.46;98600.00;10382656;28;20495;-49
2023/10/11 22:06:22;;;;;;;19.40;11.82;;;;;;;10.10;76.94;98594.72;10370401;28;20078;-51
2023/10/11 22:11:25;;;;;;;20.55;12.13;;;;;;;10.04;77.15;98587.69;10369728;28;20037;-48
2023/10/11 22:16:24;;;;;;;23.08;12.20;;;;;;;9.98;77.29;98587.63;10408467;28;20132;-48
2023/10/11 22:21:23;;;;;;;25.17;12.38;;;;;;;9.90;78.18;98589.22;10407862;28;20034;-48
2023/10/11 22:26:26;;;;;;;21.02;13.15;;;;;;;9.60;77.80;98532.59;10408138;28;20119;-50
2023/10/11 22:31:25;;;;;;;21.00;12.63;;;;;;;9.82;77.92;98580.47;10409079;28;20068;-49
2023/10/11 22:36:26;;;;;;;20.27;12.85;;;;;;;9.73;77.76;98579.44;10408618;28;20037;-50
2023/10/11 22:41:25;;;;;;;26.80;14.40;;;;;;;9.68;78.16;98575.94;10409375;28;20060;-49
2023/10/11 22:46:24;;;;;;;21.00;14.15;;;;;;;9.44;78.30;98534.06;10410025;28;20228;-47
2023/10/11 22:51:24;;;;;;;20.75;13.38;;;;;;;9.58;78.07;98566.25;10409831;28;20499;-48
2023/10/11 22:56:23;;;;;;;21.67;11.77;;;;;;;9.54;77.76;98567.94;10409860;28;20139;-47
2023/10/11 23:01:22;;;;;;;23.92;12.48;;;;;;;9.46;77.83;98566.06;10380622;28;20048;-48
2023/10/11 23:06:21;;;;;;;18.40;12.15;;;;;;;9.43;78.12;98558.25;10367995;28;20068;-48
2023/10/11 23:11:20;;;;;;;16.00;12.20;;;;;;;9.33;78.28;98558.09;10367061;28;20024;-49
2023/10/11 23:16:20;;;;;;;;;;;;;;;9.24;78.90;98555.31;10367796;28;20547;-49
2023/10/11 23:21:22;;;;;;;17.20;11.40;;;;;;;9.19;78.69;98559.53;10367238;28;20459;-49
2023/10/11 23:26:25;;;;;;;18.58;12.27;;;;;;;9.17;78.96;98562.94;10368186;28;20119;-49
2023/10/11 23:31:26;;;;;;;17.20;11.25;;;;;;;8.67;78.91;98494.78;10369242;28;20065;-50
2023/10/11 23:36:34;;;;;;;17.48;9.93;;;;;;;9.01;79.36;98556.63;10370890;28;20126;-48
2023/10/11 23:41:46;;;;;;;18.63;11.55;;;;;;;8.89;79.53;98554.69;10407669;28;20074;-47
2023/10/11 23:46:57;;;;;;;18.63;11.23;;;;;;;8.72;79.69;98550.06;10369428;28;20075;-48
2023/10/11 23:51:57;;;;;;;19.90;11.23;;;;;;;8.68;80.08;98556.00;10409200;28;20091;-49
2023/10/11 23:56:58;;;;;;;16.42;11.05;;;;;;;8.61;80.07;98537.75;10368827;28;20072;-49
